Main page
METAR-TAF:

METAR-TAF

Airports :

Lord Howe Island Airport

Lord Howe Island, Australia

latitude: 31-32-18S, longitude: 159-04-38E, elevation: 5 m

Current weather observation

The report was made 39 minutes ago, at 01:30 UTC
Wind 9 kt from the East/Northeast, varying between East/Northeast and East/Southeast
Temperature 24°C
Humidity 65%
Pressure 1015 hPa
Visibility 10 km or more
Few clouds at a height of 3500 ft

METAR: YLHI 070130Z 07009KT 060V120 9999 FEW035 24/17 Q1015

Time: 12:09 (02:09 UTC)

Forecast

The report was made 2 hours and 50 minutes ago, at 23:19 UTC
Forecast valid from 07 at 00 UTC to 08 at 00 UTC
Wind 14 kt from the South
Visibility: 5000 m
Scattered clouds at a height of 2500 ft
Broken clouds at a height of 1500 ft
light rain showers, rain showers

TAF: YLHI 062319Z 0700/0800 17014KT 9999 -SHRA SCT025 INTER 0702/0715 5000 SHRA BKN015

Weather observations and forecasts of more than 4000 airports (METAR and TAF reports).

The available stations are represented by yellow and red dots on the map.

Hover mouse over dot to see the name of the station.

Then click to see weather observations and forecasts.

To change the map : click on the green buttons with a black cross to zoom in, on the green button with a dash to zoom out, or on the green arrows for adjacent maps.


METAR-TAF: